UCFM

Manas

Manas, Kyrgyzstan
TAF UCFM 161638Z 1618/1718 12003G08MPS 9999 SCT050CB TEMPO 1618/1624 VRB08G13MPS 3000 -TSRA BKN030CB TEMPO 1700/1705 12008G13MPS BECMG 1705/1706 26005MPS
Issued Valid From Valid To
Jul-16 @ 16:38 UTC
(3 hours ago)
Jul-16 @ 18:00 UTC
(2 hours ago)
Jul-17 @ 18:00 UTC
(in 22 hours)
Jul-16 @ 18:00 to Jul-17 @ 05:00
TAF UCFM 161638Z 1618/1718 12003G08MPS 9999 SCT050CB
Wind Visibility Clouds
120° at 6 knots
 Gusting to 16 knots
10,000+ meters
  • Scattered at 5,000' AGL
Temporary Jul-16 @ 18:00 to Jul-17 @ 00:00
TEMPO 1618/1624 VRB08G13MPS 3000 -TSRA BKN030CB
Wind Visibility Clouds Conditions
Variable at 16 knots
 Gusting to 25 knots
2,993 meters
  • Broken at 3,000' AGL
  • Light Thunderstorm
  • Light Rain
Temporary Jul-17 @ 00:00 to Jul-17 @ 05:00
TEMPO 1700/1705 12008G13MPS
Wind
120° at 16 knots
 Gusting to 25 knots
Becoming Jul-17 @ 05:00 to Jul-17 @ 18:00
BECMG 1705/1706 26005MPS
Wind Visibility Clouds
260° at 10 knots 10,000+ meters
  • Scattered at 5,000' AGL
TAF UCFM 161638Z 1618/1718 12003G08MPS 9999 SCT050CB TEMPO 1618/1624 VRB08G13MPS 3000 -TSRA BKN030CB TEMPO 1700/1705 12008G13MPS BECMG 1705/1706 26005MPS
Issued Jul-16 @ 16:38 UTC
(3 hours ago)
Valid From Jul-16 @ 18:00 UTC
(2 hours ago)
Valid To Jul-17 @ 18:00 UTC
(in 22 hours)
Jul-16 @ 18:00 - Jul-17 @ 05:00
Wind Visibility
120° at 6 knots
 Gusting to 16 knots
10,000+ meters
Clouds
  • Scattered at 5,000' AGL
Temporary Jul-16 @ 18:00 - Jul-17 @ 00:00
Wind Visibility
Variable at 16 knots
 Gusting to 25 knots
2,993 meters
Clouds
  • Broken at 3,000' AGL
Conditions
  • Light Thunderstorm
  • Light Rain
Temporary Jul-17 @ 00:00 - Jul-17 @ 05:00
Wind
120° at 16 knots
 Gusting to 25 knots
Becoming Jul-17 @ 05:00 - Jul-17 @ 18:00
Wind Visibility
260° at 10 knots 10,000+ meters
Clouds
  • Scattered at 5,000' AGL